createdAt,value
2022-07-26T00:02:00.541Z,2.30
2022-07-26T00:04:28.812Z,1.00
2022-07-26T00:06:56.881Z,1.00
2022-07-26T00:09:24.673Z,1.00
2022-07-26T00:11:52.603Z,1.20
2022-07-26T00:14:20.756Z,1.00
2022-07-26T00:16:49.997Z,1.00
2022-07-26T00:19:18.181Z,1.00
2022-07-26T00:21:46.021Z,1.00
2022-07-26T00:24:13.905Z,1.00
2022-07-26T00:26:41.776Z,1.00
2022-07-26T00:29:09.841Z,1.00
2022-07-26T00:31:37.927Z,1.00
2022-07-26T00:34:07.134Z,1.00
2022-07-26T00:36:34.968Z,1.00
2022-07-26T00:39:04.085Z,1.00
2022-07-26T00:41:31.908Z,1.00
2022-07-26T00:44:00.226Z,1.00
2022-07-26T00:46:28.431Z,1.00
2022-07-26T00:48:56.384Z,1.00
2022-07-26T00:51:25.603Z,1.00
2022-07-26T00:53:53.497Z,1.00
2022-07-26T00:56:21.743Z,1.00
2022-07-26T00:58:49.567Z,1.00
2022-07-26T01:01:17.578Z,1.00
2022-07-26T01:03:45.903Z,1.00
2022-07-26T01:06:14.539Z,1.00
2022-07-26T01:08:44.161Z,1.00
2022-07-26T01:11:12.259Z,1.00
2022-07-26T01:13:46.550Z,1.00
2022-07-26T01:16:14.651Z,1.00
2022-07-26T01:18:42.624Z,1.00
2022-07-26T01:21:13.948Z,1.00
2022-07-26T01:23:43.946Z,1.00
2022-07-26T01:26:11.968Z,3.30
2022-07-26T01:28:41.121Z,4.20
2022-07-26T01:31:09.507Z,6.50
2022-07-26T01:33:37.504Z,6.40
2022-07-26T01:36:05.500Z,1.00
2022-07-26T01:38:33.392Z,1.00
2022-07-26T01:41:02.601Z,1.00
2022-07-26T01:43:30.449Z,1.00
2022-07-26T01:45:58.331Z,1.00
2022-07-26T01:48:26.381Z,1.00
2022-07-26T01:50:54.297Z,1.00
2022-07-26T01:53:22.166Z,1.20
2022-07-26T01:55:50.003Z,1.00
2022-07-26T01:58:19.245Z,1.00
2022-07-26T02:00:47.137Z,12.60
2022-07-26T02:03:14.992Z,10.70
2022-07-26T02:05:42.916Z,3.90
2022-07-26T02:08:11.589Z,4.50
2022-07-26T02:10:58.586Z,3.00
2022-07-26T02:13:27.852Z,2.60
2022-07-26T02:15:55.801Z,2.70
2022-07-26T02:18:23.699Z,4.30
2022-07-26T02:20:51.546Z,1.00
2022-07-26T02:23:19.449Z,1.00
2022-07-26T02:25:47.790Z,1.00
2022-07-26T02:28:15.949Z,1.00
2022-07-26T02:30:45.389Z,1.00
2022-07-26T02:33:13.320Z,1.00
2022-07-26T02:35:41.343Z,3.10
2022-07-26T02:38:10.630Z,1.00
2022-07-26T02:40:39.328Z,1.00
2022-07-26T02:43:08.169Z,1.00
2022-07-26T02:45:36.107Z,3.60
2022-07-26T02:48:05.777Z,1.00
2022-07-26T02:50:33.690Z,5.80
2022-07-26T02:53:01.553Z,5.50
2022-07-26T02:55:29.436Z,5.10
2022-07-26T02:57:57.397Z,1.50
2022-07-26T03:00:26.254Z,4.80
2022-07-26T03:02:54.492Z,5.50
2022-07-26T03:05:23.761Z,7.00
2022-07-26T03:07:51.675Z,8.40
2022-07-26T03:10:19.511Z,5.60
2022-07-26T03:12:47.357Z,6.70
2022-07-26T03:15:15.200Z,12.00
2022-07-26T03:17:43.060Z,4.10
2022-07-26T03:20:11.766Z,15.80
2022-07-26T03:22:40.999Z,22.00
2022-07-26T03:25:09.058Z,16.20
2022-07-26T03:27:36.877Z,7.90
2022-07-26T03:30:05.129Z,19.20
2022-07-26T03:32:32.984Z,23.50
2022-07-26T03:35:00.820Z,14.90
2022-07-26T03:37:46.170Z,20.80
2022-07-26T03:40:17.066Z,21.80
2022-07-26T03:42:45.504Z,16.10
2022-07-26T03:45:14.461Z,21.40
2022-07-26T03:47:42.496Z,30.70
2022-07-26T03:50:11.243Z,50.10
2022-07-26T03:52:39.262Z,52.20
2022-07-26T03:55:27.479Z,39.20
2022-07-26T03:57:55.726Z,59.10
2022-07-26T04:00:23.644Z,64.20
2022-07-26T04:02:51.561Z,65.00
2022-07-26T04:05:21.923Z,72.10
2022-07-26T04:07:53.491Z,73.70
2022-07-26T04:10:22.277Z,70.10
2022-07-26T04:12:50.531Z,57.00
2022-07-26T04:15:21.294Z,60.90
2022-07-26T04:17:49.231Z,64.20
2022-07-26T04:20:17.325Z,61.70
2022-07-26T04:22:45.216Z,63.70
2022-07-26T04:25:13.168Z,64.10
2022-07-26T04:27:41.034Z,66.40
2022-07-26T04:30:14.477Z,73.80
2022-07-26T04:32:44.232Z,53.70
2022-07-26T04:35:14.816Z,67.60
2022-07-26T04:37:43.147Z,68.50
2022-07-26T04:40:11.497Z,74.90
2022-07-26T04:42:41.028Z,70.30
2022-07-26T04:45:10.816Z,64.60
2022-07-26T04:47:38.665Z,64.60
2022-07-26T04:50:09.237Z,72.50
2022-07-26T04:52:37.072Z,56.90
2022-07-26T04:55:05.186Z,61.90
2022-07-26T04:57:33.032Z,55.90
2022-07-26T05:00:20.396Z,69.90
2022-07-26T05:02:49.568Z,75.50
2022-07-26T05:05:18.878Z,85.80
2022-07-26T05:07:47.802Z,80.50
2022-07-26T05:10:16.653Z,82.00
2022-07-26T05:12:44.542Z,77.50
2022-07-26T05:15:14.153Z,72.00
2022-07-26T05:17:43.434Z,68.50
2022-07-26T05:20:12.164Z,66.60
2022-07-26T05:22:41.603Z,73.50
2022-07-26T05:25:09.515Z,70.30
2022-07-26T05:27:37.369Z,81.50
2022-07-26T05:30:05.510Z,69.00
2022-07-26T05:32:33.322Z,51.10
2022-07-26T05:35:01.224Z,49.20
2022-07-26T05:37:29.062Z,61.10
2022-07-26T05:39:58.304Z,26.70
2022-07-26T05:42:26.761Z,36.50
2022-07-26T05:44:55.999Z,44.20
2022-07-26T05:47:24.025Z,28.80
2022-07-26T05:49:51.894Z,22.10
2022-07-26T05:52:19.830Z,18.50
2022-07-26T05:54:47.644Z,13.00
2022-07-26T05:57:16.812Z,9.70
2022-07-26T05:59:44.641Z,13.10
2022-07-26T06:02:12.555Z,17.20
2022-07-26T06:04:40.454Z,16.70
2022-07-26T06:07:08.297Z,17.30
2022-07-26T06:09:36.188Z,15.10
2022-07-26T06:12:04.235Z,18.30
2022-07-26T06:14:33.401Z,20.30
2022-07-26T06:17:01.290Z,16.80
2022-07-26T06:19:29.209Z,14.60
2022-07-26T06:21:57.085Z,8.00
2022-07-26T06:24:24.948Z,5.90
2022-07-26T06:26:56.870Z,8.20
2022-07-26T06:29:32.034Z,3.50
2022-07-26T06:32:01.990Z,4.90
2022-07-26T06:34:30.277Z,3.10
2022-07-26T06:36:58.106Z,3.50
2022-07-26T06:39:25.947Z,1.00
2022-07-26T06:41:53.825Z,5.90
2022-07-26T06:44:22.596Z,1.00
2022-07-26T06:46:50.595Z,1.00
2022-07-26T06:49:22.712Z,1.00
2022-07-26T06:51:51.080Z,1.00
2022-07-26T06:54:19.702Z,3.30
2022-07-26T06:56:47.535Z,1.00
2022-07-26T06:59:15.388Z,1.00
2022-07-26T07:01:59.304Z,1.00
2022-07-26T07:04:30.813Z,1.00
2022-07-26T07:07:05.343Z,1.00
2022-07-26T07:09:33.976Z,1.00
2022-07-26T07:12:09.893Z,1.00
2022-07-26T07:14:38.601Z,1.00
2022-07-26T07:17:11.084Z,1.00
2022-07-26T07:19:42.530Z,1.00
2022-07-26T07:22:12.251Z,1.00
2022-07-26T07:24:40.801Z,1.00
2022-07-26T07:27:08.901Z,1.00
2022-07-26T07:29:38.705Z,1.00
2022-07-26T07:32:17.991Z,1.00
2022-07-26T07:34:48.057Z,1.00
2022-07-26T07:37:15.977Z,1.00
2022-07-26T07:39:43.853Z,1.00
2022-07-26T07:42:16.818Z,1.00
2022-07-26T07:44:44.945Z,1.00
2022-07-26T07:47:12.868Z,1.00
2022-07-26T07:49:40.760Z,1.00
2022-07-26T07:52:10.019Z,1.00
2022-07-26T07:54:37.965Z,1.00
2022-07-26T07:57:05.865Z,1.00
2022-07-26T07:59:33.715Z,1.00
2022-07-26T08:02:07.336Z,1.00
2022-07-26T08:04:35.242Z,1.00
2022-07-26T08:07:03.100Z,1.00
2022-07-26T08:09:33.754Z,1.00
2022-07-26T08:12:01.983Z,1.00
2022-07-26T08:14:30.120Z,1.00
2022-07-26T08:16:58.116Z,1.00
2022-07-26T08:19:26.127Z,1.00
2022-07-26T08:22:10.018Z,1.00
2022-07-26T08:24:40.467Z,1.00
2022-07-26T08:27:08.313Z,1.00
2022-07-26T08:29:36.159Z,1.00
2022-07-26T08:32:04.104Z,1.00
2022-07-26T08:34:31.985Z,1.00
2022-07-26T08:37:15.846Z,1.00
2022-07-26T08:39:46.032Z,1.00
2022-07-26T08:42:15.176Z,1.00
2022-07-26T08:44:44.071Z,1.00
2022-07-26T08:47:12.704Z,1.00
2022-07-26T08:49:40.646Z,1.00
2022-07-26T08:52:08.933Z,1.00
2022-07-26T08:54:36.998Z,1.00
2022-07-26T08:57:06.297Z,1.00
2022-07-26T08:59:34.199Z,1.00
2022-07-26T09:02:03.369Z,1.00
2022-07-26T09:04:33.824Z,1.00
2022-07-26T09:07:04.284Z,1.00
2022-07-26T09:09:32.602Z,1.00
2022-07-26T09:12:13.697Z,1.00
2022-07-26T09:14:42.901Z,1.00
2022-07-26T09:17:10.744Z,1.00
2022-07-26T09:19:38.592Z,1.00
2022-07-26T09:22:10.862Z,1.00
2022-07-26T09:24:41.051Z,1.00
2022-07-26T09:27:09.949Z,1.00
2022-07-26T09:29:49.256Z,1.00
2022-07-26T09:32:18.402Z,1.00
2022-07-26T09:34:52.777Z,1.00
2022-07-26T09:37:33.602Z,1.00
2022-07-26T09:40:03.103Z,1.00
2022-07-26T09:42:30.945Z,1.00
2022-07-26T09:45:00.296Z,1.00
2022-07-26T09:47:37.909Z,1.00
2022-07-26T09:50:12.509Z,1.00
2022-07-26T09:52:40.478Z,1.00
2022-07-26T09:55:09.354Z,1.00
2022-07-26T09:57:37.254Z,1.00
2022-07-26T10:00:07.747Z,1.00
2022-07-26T10:02:35.842Z,1.00
2022-07-26T10:05:03.733Z,1.00
2022-07-26T10:07:31.618Z,1.00
2022-07-26T10:10:03.099Z,1.00
2022-07-26T10:12:32.357Z,1.00
2022-07-26T10:15:00.208Z,1.00
2022-07-26T10:17:45.936Z,1.00
2022-07-26T10:20:32.667Z,1.00
2022-07-26T10:23:02.923Z,1.00
2022-07-26T10:25:48.318Z,1.00
2022-07-26T10:28:26.792Z,1.00
2022-07-26T10:31:15.195Z,1.00
2022-07-26T10:33:44.763Z,1.00
2022-07-26T10:36:22.707Z,1.00
2022-07-26T10:39:00.482Z,1.00
2022-07-26T10:41:36.355Z,1.00
2022-07-26T10:44:14.401Z,1.00
2022-07-26T10:46:55.938Z,1.00
2022-07-26T10:49:29.536Z,1.00
2022-07-26T10:52:06.122Z,1.00
2022-07-26T10:54:55.319Z,1.00
2022-07-26T10:57:24.819Z,1.00
2022-07-26T10:59:56.120Z,4.50
2022-07-26T11:02:26.255Z,7.70
2022-07-26T11:04:59.868Z,1.00
2022-07-26T11:07:27.704Z,1.00
2022-07-26T11:09:56.175Z,1.00
2022-07-26T11:12:25.570Z,1.00
2022-07-26T11:14:54.231Z,1.00
2022-07-26T11:17:25.255Z,1.00
2022-07-26T11:19:53.180Z,1.00
2022-07-26T11:22:21.244Z,1.00
2022-07-26T11:24:49.360Z,1.00
2022-07-26T11:27:17.181Z,1.00
2022-07-26T11:29:49.159Z,1.00
2022-07-26T11:32:19.105Z,1.00
2022-07-26T11:34:47.366Z,1.00
2022-07-26T11:37:15.264Z,1.00
2022-07-26T11:39:43.135Z,1.00
2022-07-26T11:42:11.750Z,1.00
2022-07-26T11:44:43.864Z,1.00
2022-07-26T11:47:14.108Z,1.00
2022-07-26T11:49:52.458Z,1.00
2022-07-26T11:52:30.287Z,1.00
2022-07-26T11:54:58.134Z,1.00
2022-07-26T11:57:29.697Z,1.00
2022-07-26T11:59:57.745Z,1.00
2022-07-26T12:02:27.063Z,1.00
2022-07-26T12:05:09.865Z,1.00
2022-07-26T12:07:37.922Z,1.00
2022-07-26T12:10:06.417Z,1.00
2022-07-26T12:12:35.338Z,1.00
2022-07-26T12:15:03.848Z,1.00
2022-07-26T12:17:35.769Z,1.00
2022-07-26T12:20:13.471Z,1.00
2022-07-26T12:22:41.407Z,1.00
2022-07-26T12:25:09.481Z,1.00
2022-07-26T12:27:45.957Z,1.00
2022-07-26T12:30:17.194Z,1.00
2022-07-26T12:32:48.522Z,1.00
2022-07-26T12:35:17.353Z,1.00
2022-07-26T12:37:51.271Z,1.00
2022-07-26T12:40:20.950Z,1.00
2022-07-26T12:43:00.551Z,1.00
2022-07-26T12:45:30.470Z,1.00
2022-07-26T12:48:00.445Z,1.00
2022-07-26T12:50:29.303Z,1.00
2022-07-26T12:53:00.413Z,1.00
2022-07-26T12:55:28.221Z,1.00
2022-07-26T12:57:56.077Z,1.00
2022-07-26T13:00:25.148Z,1.00
2022-07-26T13:02:54.764Z,1.00
2022-07-26T13:05:24.248Z,1.00
2022-07-26T13:07:52.592Z,1.00
2022-07-26T13:10:36.375Z,1.00
2022-07-26T13:13:04.770Z,1.00
2022-07-26T13:15:36.839Z,1.00
2022-07-26T13:18:07.159Z,1.00
2022-07-26T13:20:37.042Z,1.00
2022-07-26T13:23:04.878Z,1.00
2022-07-26T13:25:38.449Z,1.00
2022-07-26T13:28:07.609Z,1.00
2022-07-26T13:30:36.864Z,1.00
2022-07-26T13:33:04.883Z,1.00
2022-07-26T13:35:32.729Z,1.00
2022-07-26T13:38:01.942Z,1.00
2022-07-26T13:40:31.721Z,1.00
2022-07-26T13:43:00.151Z,1.00
2022-07-26T13:45:29.178Z,1.00
2022-07-26T13:47:57.669Z,1.00
2022-07-26T13:50:28.036Z,1.00
2022-07-26T13:52:56.156Z,1.00
2022-07-26T13:55:25.546Z,1.00
2022-07-26T13:57:56.911Z,1.00
2022-07-26T14:00:26.155Z,1.00
2022-07-26T14:02:54.273Z,1.00
2022-07-26T14:05:22.274Z,1.00
2022-07-26T14:07:50.165Z,1.00
2022-07-26T14:10:18.123Z,1.00
2022-07-26T14:12:47.755Z,1.00
2022-07-26T14:15:21.449Z,1.00
2022-07-26T14:17:50.776Z,1.00
2022-07-26T14:20:18.859Z,1.00
2022-07-26T14:22:46.877Z,1.00
2022-07-26T14:25:14.867Z,1.00
2022-07-26T14:27:42.774Z,1.00
2022-07-26T14:30:12.808Z,1.00
2022-07-26T14:32:40.656Z,1.00
2022-07-26T14:35:10.208Z,1.00
2022-07-26T14:37:43.467Z,1.00
2022-07-26T14:40:14.009Z,1.00
2022-07-26T14:42:41.998Z,1.00
2022-07-26T14:45:10.619Z,1.00
2022-07-26T14:47:39.831Z,1.00
2022-07-26T14:50:08.566Z,1.00
2022-07-26T14:52:37.499Z,1.00
2022-07-26T14:55:05.690Z,1.00
2022-07-26T14:57:33.561Z,1.00
2022-07-26T15:00:07.374Z,1.00
2022-07-26T15:02:35.367Z,1.00
2022-07-26T15:05:04.786Z,1.00
2022-07-26T15:07:32.603Z,1.00
2022-07-26T15:10:00.481Z,1.00
2022-07-26T15:12:28.369Z,1.00
2022-07-26T15:14:56.205Z,1.00
2022-07-26T15:17:24.232Z,1.00
2022-07-26T15:19:52.105Z,1.00
2022-07-26T15:22:21.386Z,1.00
2022-07-26T15:24:49.236Z,1.00
2022-07-26T15:27:17.069Z,1.00
2022-07-26T15:29:46.805Z,1.00
2022-07-26T15:32:14.725Z,1.00
2022-07-26T15:34:42.593Z,1.00
2022-07-26T15:37:10.556Z,1.00
2022-07-26T15:39:39.791Z,1.00
2022-07-26T15:42:08.017Z,1.00
2022-07-26T15:44:38.385Z,1.00
2022-07-26T15:47:06.509Z,1.00
2022-07-26T15:49:34.548Z,1.00
2022-07-26T15:52:10.629Z,1.00
2022-07-26T15:54:41.688Z,1.00
2022-07-26T15:57:09.873Z,1.00
2022-07-26T15:59:37.705Z,1.00
2022-07-26T16:02:05.774Z,1.00
2022-07-26T16:04:33.694Z,1.00
2022-07-26T16:07:01.553Z,1.00
2022-07-26T16:09:29.426Z,1.00
2022-07-26T16:12:01.569Z,1.00
2022-07-26T16:14:33.438Z,1.00
2022-07-26T16:17:01.860Z,1.00
2022-07-26T16:19:29.833Z,1.00
2022-07-26T16:21:57.698Z,1.00
2022-07-26T16:24:25.918Z,1.00
2022-07-26T16:26:53.989Z,1.00
2022-07-26T16:29:23.258Z,1.00
2022-07-26T16:31:51.227Z,1.00
2022-07-26T16:34:19.044Z,1.00
2022-07-26T16:36:46.893Z,1.00
2022-07-26T16:39:15.324Z,1.00
2022-07-26T16:41:43.576Z,1.00
2022-07-26T16:44:11.423Z,1.00
2022-07-26T16:46:40.736Z,1.00
2022-07-26T16:49:09.299Z,1.00
2022-07-26T16:51:37.497Z,1.00
2022-07-26T16:54:05.621Z,1.00
2022-07-26T16:56:33.456Z,1.00
2022-07-26T16:59:01.377Z,1.00
2022-07-26T17:01:29.234Z,1.00
2022-07-26T17:03:58.408Z,1.00
2022-07-26T17:06:26.245Z,1.00
2022-07-26T17:08:54.298Z,1.00
2022-07-26T17:11:22.186Z,1.00
2022-07-26T17:13:50.019Z,1.00
2022-07-26T17:16:21.361Z,1.00
2022-07-26T17:18:52.571Z,1.00
2022-07-26T17:21:21.823Z,1.00
2022-07-26T17:23:49.738Z,1.00
2022-07-26T17:26:17.695Z,1.00
2022-07-26T17:28:45.567Z,1.00
2022-07-26T17:31:13.421Z,1.00
2022-07-26T17:33:41.279Z,1.00
2022-07-26T17:36:26.731Z,1.00
2022-07-26T17:38:54.850Z,1.00
2022-07-26T17:41:23.688Z,1.00
2022-07-26T17:44:02.379Z,1.00
2022-07-26T17:46:32.398Z,1.00
2022-07-26T17:49:00.758Z,1.00
2022-07-26T17:51:29.991Z,1.00
2022-07-26T17:53:57.845Z,1.00
2022-07-26T17:56:25.692Z,1.00
2022-07-26T17:58:53.547Z,1.00
2022-07-26T18:01:21.444Z,1.00
2022-07-26T18:03:49.737Z,1.00
2022-07-26T18:06:18.529Z,1.00
2022-07-26T18:08:47.799Z,1.00
2022-07-26T18:11:15.633Z,1.00
2022-07-26T18:13:43.489Z,1.00
2022-07-26T18:16:11.365Z,1.00
2022-07-26T18:18:39.255Z,1.00
2022-07-26T18:21:07.094Z,1.00
2022-07-26T18:23:34.950Z,1.00
2022-07-26T18:26:04.359Z,1.00
2022-07-26T18:28:32.188Z,1.00
2022-07-26T18:31:00.040Z,1.00
2022-07-26T18:33:27.950Z,1.00
2022-07-26T18:36:00.934Z,1.00
2022-07-26T18:38:28.786Z,1.00
2022-07-26T18:40:56.663Z,1.00
2022-07-26T18:43:25.844Z,1.00
2022-07-26T18:45:53.706Z,1.00
2022-07-26T18:48:22.145Z,1.00
2022-07-26T18:50:52.472Z,1.00
2022-07-26T18:53:21.168Z,1.00
2022-07-26T18:55:49.275Z,1.00
2022-07-26T18:58:17.096Z,1.00
2022-07-26T19:00:48.939Z,1.00
2022-07-26T19:03:17.162Z,1.00
2022-07-26T19:05:45.019Z,1.00
2022-07-26T19:08:12.841Z,1.00
2022-07-26T19:10:40.829Z,1.00
2022-07-26T19:13:08.661Z,1.00
2022-07-26T19:15:36.548Z,1.00
2022-07-26T19:18:11.738Z,1.00
2022-07-26T19:20:39.591Z,1.00
2022-07-26T19:23:10.384Z,1.00
2022-07-26T19:25:38.766Z,1.00
2022-07-26T19:28:07.417Z,1.00
2022-07-26T19:30:37.237Z,1.00
2022-07-26T19:33:05.988Z,1.00
2022-07-26T19:35:35.185Z,1.00
2022-07-26T19:38:03.184Z,1.00
2022-07-26T19:40:31.305Z,1.00
2022-07-26T19:42:59.153Z,1.00
2022-07-26T19:45:27.043Z,1.00
2022-07-26T19:47:55.656Z,1.00
2022-07-26T19:50:23.838Z,1.00
2022-07-26T19:52:53.066Z,1.00
2022-07-26T19:55:22.585Z,1.00
2022-07-26T19:57:50.538Z,1.00
2022-07-26T20:00:18.704Z,1.00
2022-07-26T20:02:46.615Z,1.00
2022-07-26T20:05:14.761Z,1.00
2022-07-26T20:07:43.278Z,1.00
2022-07-26T20:10:12.581Z,1.00
2022-07-26T20:12:40.389Z,1.00
2022-07-26T20:15:09.114Z,1.00
2022-07-26T20:17:39.161Z,1.00
2022-07-26T20:20:07.730Z,1.00
2022-07-26T20:22:35.866Z,1.00
2022-07-26T20:25:03.855Z,1.00
2022-07-26T20:27:33.096Z,1.00
2022-07-26T20:30:01.476Z,1.00
2022-07-26T20:32:29.387Z,1.00
2022-07-26T20:34:57.184Z,1.00
2022-07-26T20:37:24.985Z,1.00
2022-07-26T20:39:52.849Z,1.00
2022-07-26T20:42:21.651Z,1.00
2022-07-26T20:44:52.632Z,1.00
2022-07-26T20:47:20.480Z,1.00
2022-07-26T20:49:48.749Z,1.00
2022-07-26T20:52:16.594Z,1.00
2022-07-26T20:54:44.420Z,1.00
2022-07-26T20:57:12.258Z,1.00
2022-07-26T20:59:40.127Z,1.00
2022-07-26T21:02:09.511Z,1.00
2022-07-26T21:04:37.362Z,1.00
2022-07-26T21:07:05.195Z,1.00
2022-07-26T21:09:33.119Z,1.00
2022-07-26T21:12:00.957Z,1.00
2022-07-26T21:14:28.882Z,1.00
2022-07-26T21:16:56.761Z,1.00
2022-07-26T21:19:26.070Z,1.00
2022-07-26T21:21:54.677Z,1.00
2022-07-26T21:24:22.537Z,1.00
2022-07-26T21:26:50.381Z,1.00
2022-07-26T21:29:18.232Z,1.00
2022-07-26T21:31:46.062Z,1.00
2022-07-26T21:34:13.999Z,1.00
2022-07-26T21:36:43.228Z,1.00
2022-07-26T21:39:11.378Z,1.00
2022-07-26T21:41:39.686Z,1.00
2022-07-26T21:44:07.546Z,1.00
2022-07-26T21:46:35.523Z,1.00
2022-07-26T21:49:03.724Z,1.00
2022-07-26T21:51:31.626Z,1.00
2022-07-26T21:54:01.555Z,1.00
2022-07-26T21:56:29.707Z,1.00
2022-07-26T21:58:57.614Z,1.00
2022-07-26T22:01:26.292Z,1.00
2022-07-26T22:03:54.374Z,1.00
2022-07-26T22:06:22.217Z,1.00
2022-07-26T22:08:50.080Z,1.00
2022-07-26T22:11:19.220Z,1.00
2022-07-26T22:13:47.858Z,1.00
2022-07-26T22:16:15.772Z,1.00
2022-07-26T22:18:43.657Z,1.00
2022-07-26T22:21:11.536Z,1.00
2022-07-26T22:23:39.362Z,1.00
2022-07-26T22:26:07.478Z,1.00
2022-07-26T22:28:38.161Z,1.00
2022-07-26T22:31:06.019Z,1.00
2022-07-26T22:33:33.832Z,1.00
2022-07-26T22:36:01.697Z,1.00
2022-07-26T22:38:30.364Z,1.00
2022-07-26T22:40:59.769Z,1.00
2022-07-26T22:43:27.585Z,1.00
2022-07-26T22:45:56.804Z,1.00
2022-07-26T22:48:24.670Z,1.00
2022-07-26T22:50:52.539Z,1.00
2022-07-26T22:53:20.375Z,1.00
2022-07-26T22:55:48.247Z,1.00
2022-07-26T22:58:16.084Z,1.00
2022-07-26T23:00:43.958Z,1.00
2022-07-26T23:03:19.288Z,1.00
2022-07-26T23:05:48.961Z,1.00
2022-07-26T23:08:45.903Z,1.00
2022-07-26T23:11:04.962Z,1.00
2022-07-26T23:13:32.816Z,1.00
2022-07-26T23:16:01.620Z,1.00
2022-07-26T23:18:31.676Z,1.00
2022-07-26T23:20:59.660Z,1.00
2022-07-26T23:23:29.670Z,1.00
2022-07-26T23:25:58.694Z,1.00
2022-07-26T23:28:36.644Z,1.00
2022-07-26T23:31:10.757Z,1.00
2022-07-26T23:33:53.240Z,1.00
2022-07-26T23:36:25.740Z,1.00
2022-07-26T23:38:53.864Z,1.00
2022-07-26T23:41:21.781Z,1.00
2022-07-26T23:43:49.652Z,1.00
2022-07-26T23:46:17.747Z,1.00
2022-07-26T23:48:47.281Z,1.00
2022-07-26T23:51:15.523Z,1.00
2022-07-26T23:53:43.360Z,1.00
2022-07-26T23:56:11.189Z,1.00
2022-07-26T23:58:39.113Z,1.00
